Observation data for Denver City on 08/14/2020      Previous  Date  Next       Current Mesonet Observations  Soil Data  Daily Summary Page  Observations in Plain Language
KDVS 140500Z 18012KT 31/10 A3002 RMK A01 T03080097  RH  028%=      5-min Rain = 0
KDVS 140505Z 19011KT 31/10 A3002 RMK A01 T03050098  RH  029%=      5-min Rain = 0
KDVS 140510Z 19012KT 30/10 A3002 RMK A01 T03040098  RH  029%=      5-min Rain = 0
KDVS 140515Z 19011KT 31/10 A3002 RMK A01 T03050097  RH  029%=      5-min Rain = 0
KDVS 140520Z 20011G17KT 30/10 A3002 RMK A01 T03040098  RH  029%=      5-min Rain = 0
KDVS 140525Z 19013KT 31/10 A3002 RMK A01 T03060097  RH  028%=      5-min Rain = 0
KDVS 140530Z 19012KT 31/10 A3002 RMK A01 T03060097  RH  028%=      5-min Rain = 0
KDVS 140535Z 19012KT 31/10 A3003 RMK A01 T03060097  RH  028%=      5-min Rain = 0
KDVS 140540Z 19012KT 30/10 A3003 RMK A01 T03040097  RH  029%=      5-min Rain = 0
KDVS 140545Z 19012KT 30/10 A3003 RMK A01 T03030097  RH  029%=      5-min Rain = 0
KDVS 140550Z 19010KT 30/10 A3003 RMK A01 T03020097  RH  029%=      5-min Rain = 0
KDVS 140555Z 19010KT 30/10 A3003 RMK A01 T03000097  RH  029%=      5-min Rain = 0
KDVS 140600Z 19011KT 30/10 A3003 RMK A01 T02990098  RH  030%=      5-min Rain = 0
KDVS 140605Z 19011KT 30/10 A3003 RMK A01 T02980098  RH  030%=      5-min Rain = 0
KDVS 140610Z 19010KT 30/10 A3003 RMK A01 T02950099  RH  031%=      5-min Rain = 0
KDVS 140615Z 19010KT 29/10 A3003 RMK A01 T02940099  RH  031%=      5-min Rain = 0
KDVS 140620Z 20009G14KT 29/10 A3003 RMK A01 T02930099  RH  031%=      5-min Rain = 0
KDVS 140625Z 20010KT 29/10 A3003 RMK A01 T02930099  RH  031%=      5-min Rain = 0
KDVS 140630Z 20011KT 29/10 A3003 RMK A01 T02940098  RH  031%=      5-min Rain = 0
KDVS 140635Z 20009KT 29/10 A3003 RMK A01 T02920099  RH  031%=      5-min Rain = 0
KDVS 140640Z 20011KT 29/10 A3003 RMK A01 T02920099  RH  031%=      5-min Rain = 0
KDVS 140645Z 20010KT 29/10 A3003 RMK A01 T02910099  RH  031%=      5-min Rain = 0
KDVS 140650Z 19011KT 29/10 A3003 RMK A01 T02910099  RH  031%=      5-min Rain = 0
KDVS 140655Z 20010KT 29/10 A3003 RMK A01 T02900100  RH  032%=      5-min Rain = 0
KDVS 140700Z 20010KT 29/10 A3003 RMK A01 T02880099  RH  032%=      5-min Rain = 0
KDVS 140705Z 20011KT 29/10 A3003 RMK A01 T02890100  RH  032%=      5-min Rain = 0
KDVS 140710Z 20010KT 29/10 A3003 RMK A01 T02880100  RH  032%=      5-min Rain = 0
KDVS 140715Z 19010KT 29/10 A3003 RMK A01 T02870101  RH  032%=      5-min Rain = 0
KDVS 140720Z 19010KT 29/10 A3003 RMK A01 T02860101  RH  033%=      5-min Rain = 0
KDVS 140725Z 19009KT 28/10 A3003 RMK A01 T02840102  RH  033%=      5-min Rain = 0
KDVS 140730Z 19009KT 28/10 A3003 RMK A01 T02840103  RH  033%=      5-min Rain = 0
KDVS 140735Z 19009KT 28/10 A3003 RMK A01 T02830103  RH  034%=      5-min Rain = 0
KDVS 140740Z 20009KT 28/10 A3003 RMK A01 T02820103  RH  034%=      5-min Rain = 0
KDVS 140745Z 20009KT 28/10 A3003 RMK A01 T02810104  RH  034%=      5-min Rain = 0
KDVS 140750Z 19009KT 28/10 A3003 RMK A01 T02810104  RH  034%=      5-min Rain = 0
KDVS 140755Z 19009KT 28/10 A3003 RMK A01 T02800104  RH  035%=      5-min Rain = 0
KDVS 140800Z 19008KT 28/11 A3003 RMK A01 T02780105  RH  035%=      5-min Rain = 0
KDVS 140805Z 20009KT 28/11 A3003 RMK A01 T02780106  RH  035%=      5-min Rain = 0
KDVS 140810Z 20009KT 28/11 A3003 RMK A01 T02770106  RH  036%=      5-min Rain = 0
KDVS 140815Z 20009KT 28/11 A3003 RMK A01 T02750106  RH  036%=      5-min Rain = 0
KDVS 140820Z 20009KT 27/11 A3003 RMK A01 T02740107  RH  036%=      5-min Rain = 0
KDVS 140825Z 20008KT 27/11 A3003 RMK A01 T02720107  RH  037%=      5-min Rain = 0
KDVS 140830Z 20007KT 27/11 A3003 RMK A01 T02700108  RH  038%=      5-min Rain = 0
KDVS 140835Z 20007KT 27/11 A3004 RMK A01 T02680108  RH  038%=      5-min Rain = 0
KDVS 140840Z 20007KT 27/11 A3004 RMK A01 T02660109  RH  039%=      5-min Rain = 0
KDVS 140845Z 21007KT 26/11 A3004 RMK A01 T02640110  RH  039%=      5-min Rain = 0
KDVS 140850Z 21006KT 26/11 A3004 RMK A01 T02610111  RH  040%=      5-min Rain = 0
KDVS 140855Z 22005KT 26/11 A3004 RMK A01 T02590112  RH  041%=      5-min Rain = 0
KDVS 140900Z 22005KT 26/11 A3004 RMK A01 T02560113  RH  042%=      5-min Rain = 0
KDVS 140905Z 22004KT 25/11 A3004 RMK A01 T02520114  RH  044%=      5-min Rain = 0
KDVS 140910Z 23005KT 25/11 A3004 RMK A01 T02520114  RH  044%=      5-min Rain = 0
KDVS 140915Z 23005KT 25/11 A3004 RMK A01 T02510114  RH  044%=      5-min Rain = 0
KDVS 140920Z 22004KT 25/12 A3004 RMK A01 T02500115  RH  044%=      5-min Rain = 0
KDVS 140925Z 22004KT 25/12 A3004 RMK A01 T02500115  RH  044%=      5-min Rain = 0
KDVS 140930Z 21004KT 25/12 A3004 RMK A01 T02500116  RH  045%=      5-min Rain = 0
KDVS 140935Z 20003KT 25/12 A3004 RMK A01 T02490116  RH  045%=      5-min Rain = 0
KDVS 140940Z 22002KT 25/12 A3004 RMK A01 T02480118  RH  046%=      5-min Rain = 0
KDVS 140945Z 22002KT 25/12 A3004 RMK A01 T02460119  RH  047%=      5-min Rain = 0
KDVS 140950Z 22002KT 25/12 A3004 RMK A01 T02450120  RH  047%=      5-min Rain = 0
KDVS 140955Z 26002KT 24/12 A3004 RMK A01 T02440122  RH  048%=      5-min Rain = 0
KDVS 141000Z 28003KT 24/12 A3003 RMK A01 T02420121  RH  048%=      5-min Rain = 0
KDVS 141005Z 26003KT 24/12 A3003 RMK A01 T02420121  RH  049%=      5-min Rain = 0
KDVS 141010Z 24004KT 24/12 A3003 RMK A01 T02420123  RH  049%=      5-min Rain = 0
KDVS 141015Z 22005KT 24/12 A3003 RMK A01 T02420123  RH  049%=      5-min Rain = 0
KDVS 141020Z 22004KT 24/12 A3003 RMK A01 T02440122  RH  048%=      5-min Rain = 0
KDVS 141025Z 24005KT 25/12 A3003 RMK A01 T02450122  RH  048%=      5-min Rain = 0
KDVS 141030Z 23005KT 25/12 A3003 RMK A01 T02460122  RH  047%=      5-min Rain = 0
KDVS 141035Z 23005KT 25/12 A3003 RMK A01 T02470122  RH  047%=      5-min Rain = 0
KDVS 141040Z 26005KT 25/12 A3004 RMK A01 T02460123  RH  048%=      5-min Rain = 0
KDVS 141045Z 28005KT 25/12 A3004 RMK A01 T02450124  RH  049%=      5-min Rain = 0
KDVS 141050Z 27004KT 24/13 A3004 RMK A01 T02420126  RH  050%=      5-min Rain = 0
KDVS 141055Z 25005KT 24/13 A3003 RMK A01 T02410127  RH  051%=      5-min Rain = 0
KDVS 141100Z 22006KT 24/13 A3003 RMK A01 T02420126  RH  050%=      5-min Rain = 0
KDVS 141105Z 20006KT 25/12 A3003 RMK A01 T02450124  RH  049%=      5-min Rain = 0
KDVS 141110Z 20007KT 25/13 A3003 RMK A01 T02480125  RH  048%=      5-min Rain = 0
KDVS 141115Z 20008KT 25/13 A3003 RMK A01 T02470126  RH  049%=      5-min Rain = 0
KDVS 141120Z 20008KT 25/13 A3003 RMK A01 T02470126  RH  049%=      5-min Rain = 0
KDVS 141125Z 20007KT 25/13 A3003 RMK A01 T02470126  RH  049%=      5-min Rain = 0
KDVS 141130Z 21008KT 25/13 A3003 RMK A01 T02480127  RH  049%=      5-min Rain = 0
KDVS 141135Z 20009KT 25/13 A3003 RMK A01 T02500126  RH  048%=      5-min Rain = 0
KDVS 141140Z 19011KT 25/13 A3003 RMK A01 T02520127  RH  048%=      5-min Rain = 0
KDVS 141145Z 19011KT 25/13 A3003 RMK A01 T02490133  RH  050%=      5-min Rain = 0
KDVS 141150Z 19010KT 25/13 A3003 RMK A01 T02490133  RH  051%=      5-min Rain = 0
KDVS 141155Z 19011KT 25/13 A3004 RMK A01 T02490131  RH  050%=      5-min Rain = 0
KDVS 141200Z 18010KT 25/13 A3004 RMK A01 T02500129  RH  049%=      5-min Rain = 0
KDVS 141205Z 17009KT 25/13 A3004 RMK A01 T02490129  RH  049%=      5-min Rain = 0
KDVS 141210Z 18014G19KT 25/13 A3003 RMK A01 T02520129  RH  048%=      5-min Rain = 0
KDVS 141215Z 19016KT 26/13 A3003 RMK A01 T02600126  RH  045%=      5-min Rain = 0
KDVS 141220Z 19016G22KT 26/13 A3003 RMK A01 T02560128  RH  047%=      5-min Rain = 0
KDVS 141225Z 19018G25KT 27/12 A3003 RMK A01 T02700115  RH  040%=      5-min Rain = 0
KDVS 141230Z 21009G23KT 32/09 A3004 RMK A01 T03190087  RH  025%=      5-min Rain = 0
KDVS 141235Z 20010KT 31/10 A3005 RMK A01 T03050103  RH  031%=      5-min Rain = 0
KDVS 141240Z 20014G19KT 27/12 A3004 RMK A01 T02730123  RH  041%=      5-min Rain = 0
KDVS 141245Z 18012KT 26/13 A3005 RMK A01 T02610128  RH  045%=      5-min Rain = 0
KDVS 141250Z 18014G19KT 26/13 A3005 RMK A01 T02590125  RH  045%=      5-min Rain = 0
KDVS 141255Z 17011KT 26/13 A3006 RMK A01 T02580125  RH  045%=      5-min Rain = 0
KDVS 141300Z 12008KT 25/13 A3006 RMK A01 T02530126  RH  047%=      5-min Rain = 0
KDVS 141305Z 15007KT 25/13 A3006 RMK A01 T02530125  RH  047%=      5-min Rain = 0
KDVS 141310Z 17006KT 25/13 A3006 RMK A01 T02530126  RH  047%=      5-min Rain = 0
KDVS 141315Z 20004KT 25/13 A3006 RMK A01 T02520126  RH  047%=      5-min Rain = 0
KDVS 141320Z 20005KT 25/13 A3006 RMK A01 T02510128  RH  048%=      5-min Rain = 0
KDVS 141325Z 20007KT 25/13 A3006 RMK A01 T02540128  RH  048%=      5-min Rain = 0
KDVS 141330Z 12004KT 25/13 A3007 RMK A01 T02540129  RH  048%=      5-min Rain = 0
KDVS 141335Z 18005KT 25/13 A3007 RMK A01 T02530130  RH  048%=      5-min Rain = 0
KDVS 141340Z 19006KT 26/13 A3007 RMK A01 T02560131  RH  048%=      5-min Rain = 0
KDVS 141345Z 19005KT 26/13 A3007 RMK A01 T02570131  RH  047%=      5-min Rain = 0
KDVS 141350Z 17003KT 26/13 A3007 RMK A01 T02590132  RH  047%=      5-min Rain = 0
KDVS 141355Z 15003KT 26/13 A3007 RMK A01 T02610132  RH  047%=      5-min Rain = 0
KDVS 141400Z 17004KT 26/13 A3008 RMK A01 T02630130  RH  045%=      5-min Rain = 0
KDVS 141405Z 20006KT 26/13 A3008 RMK A01 T02640131  RH  046%=      5-min Rain = 0
KDVS 141410Z 22006KT 26/13 A3008 RMK A01 T02630131  RH  046%=      5-min Rain = 0
KDVS 141415Z 25006KT 26/13 A3008 RMK A01 T02630134  RH  047%=      5-min Rain = 0
KDVS 141420Z 27008KT 27/14 A3008 RMK A01 T02660136  RH  047%=      5-min Rain = 0
KDVS 141425Z 25007KT 27/14 A3008 RMK A01 T02650137  RH  047%=      5-min Rain = 0
KDVS 141430Z 23007KT 27/13 A3008 RMK A01 T02660133  RH  046%=      5-min Rain = 0
KDVS 141435Z 23009KT 27/13 A3008 RMK A01 T02670132  RH  045%=      5-min Rain = 0
KDVS 141440Z 21007KT 27/13 A3008 RMK A01 T02670133  RH  045%=      5-min Rain = 0
KDVS 141445Z 25008KT 27/13 A3008 RMK A01 T02670134  RH  046%=      5-min Rain = 0
KDVS 141450Z 25007KT 27/13 A3008 RMK A01 T02690134  RH  045%=      5-min Rain = 0
KDVS 141455Z 23007KT 27/14 A3008 RMK A01 T02720135  RH  044%=      5-min Rain = 0
KDVS 141500Z 23010KT 28/14 A3008 RMK A01 T02760136  RH  044%=      5-min Rain = 0
KDVS 141505Z 21008KT 28/14 A3008 RMK A01 T02790137  RH  044%=      5-min Rain = 0
KDVS 141510Z 22007KT 28/14 A3008 RMK A01 T02810140  RH  044%=      5-min Rain = 0
KDVS 141515Z 23007KT 29/14 A3008 RMK A01 T02850140  RH  043%=      5-min Rain = 0
KDVS 141520Z 23007KT 29/14 A3008 RMK A01 T02910136  RH  040%=      5-min Rain = 0
KDVS 141525Z 26008KT 30/14 A3008 RMK A01 T02970137  RH  039%=      5-min Rain = 0
KDVS 141530Z 26008KT 30/14 A3008 RMK A01 T02970140  RH  040%=      5-min Rain = 0
KDVS 141535Z 26009KT 30/14 A3008 RMK A01 T03000135  RH  038%=      5-min Rain = 0
KDVS 141540Z 25008KT 30/13 A3008 RMK A01 T03020133  RH  037%=      5-min Rain = 0
KDVS 141545Z 27007KT 31/13 A3008 RMK A01 T03070132  RH  036%=      5-min Rain = 0
KDVS 141550Z 27007KT 31/13 A3008 RMK A01 T03080132  RH  036%=      5-min Rain = 0
KDVS 141555Z 28006KT 31/13 A3008 RMK A01 T03100134  RH  036%=      5-min Rain = 0
KDVS 141600Z 26007KT 31/14 A3008 RMK A01 T03110138  RH  037%=      5-min Rain = 0
KDVS 141605Z 26008KT 31/14 A3008 RMK A01 T03100136  RH  036%=      5-min Rain = 0
KDVS 141610Z 24007KT 31/13 A3009 RMK A01 T03080133  RH  036%=      5-min Rain = 0
KDVS 141615Z 24006KT 31/13 A3009 RMK A01 T03070131  RH  035%=      5-min Rain = 0
KDVS 141620Z 23004KT 31/13 A3009 RMK A01 T03080132  RH  035%=      5-min Rain = 0
KDVS 141625Z 24004KT 31/13 A3009 RMK A01 T03100130  RH  035%=      5-min Rain = 0
KDVS 141630Z 24002KT 31/13 A3009 RMK A01 T03120127  RH  034%=      5-min Rain = 0
KDVS 141635Z 29002KT 31/13 A3009 RMK A01 T03130131  RH  034%=      5-min Rain = 0
KDVS 141640Z 24005G14KT 32/12 A3009 RMK A01 T03150120  RH  032%=      5-min Rain = 0
KDVS 141645Z 26013KT 33/08 A3008 RMK A01 T03340076  RH  021%=      5-min Rain = 0
KDVS 141650Z 26007G12KT 34/08 A3009 RMK A01 T03400078  RH  020%=      5-min Rain = 0
KDVS 141655Z 29005KT 34/09 A3009 RMK A01 T03400090  RH  022%=      5-min Rain = 0
KDVS 141700Z 33004KT 34/09 A3009 RMK A01 T03400089  RH  022%=      5-min Rain = 0
KDVS 141705Z 01006KT 33/11 A3009 RMK A01 T03340113  RH  027%=      5-min Rain = 0
KDVS 141710Z 04005KT 33/12 A3008 RMK A01 T03310116  RH  028%=      5-min Rain = 0
KDVS 141715Z 02005KT 34/08 A3008 RMK A01 T03440084  RH  021%=      5-min Rain = 0
KDVS 141720Z 06005KT 35/08 A3008 RMK A01 T03530081  RH  019%=      5-min Rain = 0
KDVS 141725Z 08007KT 36/08 A3008 RMK A01 T03600080  RH  019%=      5-min Rain = 0
KDVS 141730Z 08009KT 36/10 A3008 RMK A01 T03560104  RH  022%=      5-min Rain = 0
KDVS 141735Z 06007KT 36/11 A3008 RMK A01 T03580110  RH  023%=      5-min Rain = 0
KDVS 141740Z 07008KT 36/11 A3008 RMK A01 T03550106  RH  023%=      5-min Rain = 0
KDVS 141745Z 08005KT 36/09 A3008 RMK A01 T03630090  RH  020%=      5-min Rain = 0
KDVS 141750Z 07005KT 37/09 A3008 RMK A01 T03680089  RH  019%=      5-min Rain = 0
KDVS 141755Z 10004KT 37/09 A3007 RMK A01 T03680087  RH  019%=      5-min Rain = 0
KDVS 141800Z 06003KT 37/08 A3007 RMK A01 T03650081  RH  018%=      5-min Rain = 0
KDVS 141805Z 01002KT 37/08 A3007 RMK A01 T03670080  RH  018%=      5-min Rain = 0
KDVS 141810Z 34003KT 36/08 A3007 RMK A01 T03640076  RH  018%=      5-min Rain = 0
KDVS 141815Z 36002KT 37/08 A3007 RMK A01 T03660076  RH  017%=      5-min Rain = 0
KDVS 141820Z 30002KT 37/08 A3007 RMK A01 T03650077  RH  018%=      5-min Rain = 0
KDVS 141825Z 26004KT 36/09 A3007 RMK A01 T03630087  RH  019%=      5-min Rain = 0
KDVS 141830Z 23005KT 36/09 A3007 RMK A01 T03610085  RH  019%=      5-min Rain = 0
KDVS 141835Z 21007KT 36/08 A3007 RMK A01 T03610080  RH  018%=      5-min Rain = 0
KDVS 141840Z 19004KT 36/08 A3007 RMK A01 T03610079  RH  018%=      5-min Rain = 0
KDVS 141845Z 23004KT 36/08 A3006 RMK A01 T03640082  RH  018%=      5-min Rain = 0
KDVS 141850Z 26005KT 36/09 A3006 RMK A01 T03630088  RH  019%=      5-min Rain = 0
KDVS 141855Z 26004KT 36/09 A3006 RMK A01 T03600085  RH  019%=      5-min Rain = 0
KDVS 141900Z 31003KT 36/08 A3006 RMK A01 T03610079  RH  018%=      5-min Rain = 0
KDVS 141905Z 29004KT 36/08 A3006 RMK A01 T03620077  RH  018%=      5-min Rain = 0
KDVS 141910Z 26001KT 36/08 A3006 RMK A01 T03630078  RH  018%=      5-min Rain = 0
KDVS 141915Z 30005KT 37/08 A3006 RMK A01 T03650079  RH  018%=      5-min Rain = 0
KDVS 141920Z 31005KT 36/08 A3006 RMK A01 T03620077  RH  018%=      5-min Rain = 0
KDVS 141925Z 31007KT 36/08 A3006 RMK A01 T03610077  RH  018%=      5-min Rain = 0
KDVS 141930Z 28005KT 36/07 A3005 RMK A01 T03620073  RH  017%=      5-min Rain = 0
KDVS 141935Z 26004KT 36/07 A3005 RMK A01 T03610070  RH  017%=      5-min Rain = 0
KDVS 141940Z 28003KT 36/07 A3005 RMK A01 T03610070  RH  017%=      5-min Rain = 0
KDVS 141945Z 32005KT 36/07 A3005 RMK A01 T03620069  RH  017%=      5-min Rain = 0
KDVS 141950Z 01006G12KT 36/07 A3004 RMK A01 T03630071  RH  017%=      5-min Rain = 0
KDVS 141955Z 00008G14KT 36/07 A3004 RMK A01 T03590068  RH  017%=      5-min Rain = 0
KDVS 142000Z 35005KT 36/07 A3004 RMK A01 T03610073  RH  018%=      5-min Rain = 0
KDVS 142005Z 31005G10KT 36/07 A3004 RMK A01 T03640065  RH  016%=      5-min Rain = 0
KDVS 142010Z 35008KT 37/08 A3004 RMK A01 T03700076  RH  017%=      5-min Rain = 0
KDVS 142015Z 00006KT 37/07 A3004 RMK A01 T03710072  RH  016%=      5-min Rain = 0
KDVS 142020Z 00005KT 37/07 A3003 RMK A01 T03730068  RH  016%=      5-min Rain = 0
KDVS 142025Z 35006KT 37/07 A3003 RMK A01 T03690072  RH  017%=      5-min Rain = 0
KDVS 142030Z 34007KT 37/07 A3003 RMK A01 T03680070  RH  017%=      5-min Rain = 0
KDVS 142035Z 01007KT 37/07 A3003 RMK A01 T03680074  RH  017%=      5-min Rain = 0
KDVS 142040Z 02009KT 37/08 A3002 RMK A01 T03700076  RH  017%=      5-min Rain = 0
KDVS 142045Z 03008KT 37/07 A3002 RMK A01 T03680073  RH  017%=      5-min Rain = 0
KDVS 142050Z 03006KT 37/07 A3002 RMK A01 T03690071  RH  017%=      5-min Rain = 0
KDVS 142055Z 04007KT 37/07 A3002 RMK A01 T03690071  RH  017%=      5-min Rain = 0
KDVS 142100Z 05005G10KT 37/07 A3001 RMK A01 T03690070  RH  016%=      5-min Rain = 0
KDVS 142105Z 07005KT 37/07 A3001 RMK A01 T03720068  RH  016%=      5-min Rain = 0
KDVS 142110Z 10004KT 38/07 A30 RMK A01 T03750070  RH  016%=      5-min Rain = 0
KDVS 142115Z 15004KT 38/07 A30 RMK A01 T03840070  RH  015%=      5-min Rain = 0
KDVS 142120Z 20006KT 39/07 A30 RMK A01 T03870068  RH  015%=      5-min Rain = 0
KDVS 142125Z 23001KT 38/07 A30 RMK A01 T03810066  RH  015%=      5-min Rain = 0
KDVS 142130Z 22003KT 39/07 A30 RMK A01 T03880067  RH  015%=      5-min Rain = 0
KDVS 142135Z 22006G12KT 39/07 A2999 RMK A01 T03870068  RH  015%=      5-min Rain = 0
KDVS 142140Z 19006G12KT 38/07 A2999 RMK A01 T03820066  RH  015%=      5-min Rain = 0
KDVS 142145Z 20005KT 39/07 A2999 RMK A01 T03860068  RH  015%=      5-min Rain = 0
KDVS 142150Z 18006KT 39/07 A2999 RMK A01 T03870067  RH  015%=      5-min Rain = 0
KDVS 142155Z 20005G10KT 38/07 A2999 RMK A01 T03810066  RH  015%=      5-min Rain = 0
KDVS 142200Z 20008KT 38/07 A2999 RMK A01 T03810067  RH  015%=      5-min Rain = 0
KDVS 142205Z 20008KT 38/07 A2998 RMK A01 T03810068  RH  015%=      5-min Rain = 0
KDVS 142210Z 20008KT 38/07 A2998 RMK A01 T03830068  RH  015%=      5-min Rain = 0
KDVS 142215Z 18007KT 39/07 A2998 RMK A01 T03860068  RH  015%=      5-min Rain = 0
KDVS 142220Z 18006G13KT 38/07 A2998 RMK A01 T03830066  RH  015%=      5-min Rain = 0
KDVS 142225Z 19008KT 38/07 A2998 RMK A01 T03820068  RH  015%=      5-min Rain = 0
KDVS 142230Z 18007KT 38/07 A2998 RMK A01 T03840066  RH  015%=      5-min Rain = 0
KDVS 142235Z 20009KT 39/07 A2997 RMK A01 T03850067  RH  015%=      5-min Rain = 0
KDVS 142240Z 21007KT 38/07 A2997 RMK A01 T03830066  RH  015%=      5-min Rain = 0
KDVS 142245Z 21006KT 38/07 A2998 RMK A01 T03830067  RH  015%=      5-min Rain = 0
KDVS 142250Z 19005G10KT 39/07 A2998 RMK A01 T03850068  RH  015%=      5-min Rain = 0
KDVS 142255Z 24005KT 38/07 A2997 RMK A01 T03840067  RH  015%=      5-min Rain = 0
KDVS 142300Z 20008KT 39/07 A2997 RMK A01 T03870067  RH  015%=      5-min Rain = 0
KDVS 142305Z 22009KT 39/07 A2997 RMK A01 T03850065  RH  014%=      5-min Rain = 0
KDVS 142310Z 19007G12KT 38/06 A2997 RMK A01 T03840064  RH  015%=      5-min Rain = 0
KDVS 142315Z 21009G14KT 38/07 A2998 RMK A01 T03840065  RH  015%=      5-min Rain = 0
KDVS 142320Z 21006G11KT 38/06 A2997 RMK A01 T03820064  RH  015%=      5-min Rain = 0
KDVS 142325Z 20007KT 39/07 A2997 RMK A01 T03860066  RH  015%=      5-min Rain = 0
KDVS 142330Z 22009KT 39/07 A2997 RMK A01 T03850065  RH  015%=      5-min Rain = 0
KDVS 142335Z 22008KT 38/07 A2997 RMK A01 T03830066  RH  015%=      5-min Rain = 0
KDVS 142340Z 22008KT 38/07 A2997 RMK A01 T03830066  RH  015%=      5-min Rain = 0
KDVS 142345Z 21008KT 38/07 A2997 RMK A01 T03830069  RH  015%=      5-min Rain = 0
KDVS 142350Z 20009G14KT 38/07 A2997 RMK A01 T03830068  RH  015%=      5-min Rain = 0
KDVS 142355Z 21009KT 38/07 A2997 RMK A01 T03820065  RH  015%=      5-min Rain = 0
KDVS 150000Z 21009KT 38/06 A2997 RMK A01 T03820063  RH  015%=      5-min Rain = 0
KDVS 150005Z 21010KT 38/06 A2996 RMK A01 T03810063  RH  015%=      5-min Rain = 0
KDVS 150010Z 22008KT 38/06 A2997 RMK A01 T03800062  RH  015%=      5-min Rain = 0
KDVS 150015Z 23009KT 38/06 A2997 RMK A01 T03800063  RH  015%=      5-min Rain = 0
KDVS 150020Z 22009KT 38/07 A2997 RMK A01 T03760067  RH  015%=      5-min Rain = 0
KDVS 150025Z 22006KT 37/07 A2997 RMK A01 T03720070  RH  016%=      5-min Rain = 0
KDVS 150030Z 22008KT 37/07 A2997 RMK A01 T03670073  RH  017%=      5-min Rain = 0
KDVS 150035Z 22008KT 37/07 A2997 RMK A01 T03650073  RH  017%=      5-min Rain = 0
KDVS 150040Z 22007KT 36/08 A2998 RMK A01 T03600079  RH  019%=      5-min Rain = 0
KDVS 150045Z 21007KT 36/08 A2998 RMK A01 T03560078  RH  019%=      5-min Rain = 0
KDVS 150050Z 21006KT 36/08 A2998 RMK A01 T03550077  RH  019%=      5-min Rain = 0
KDVS 150055Z 22005KT 35/08 A2998 RMK A01 T03520080  RH  019%=      5-min Rain = 0
KDVS 150100Z 22005KT 35/09 A2998 RMK A01 T03480085  RH  021%=      5-min Rain = 0
KDVS 150105Z 22005KT 34/09 A2998 RMK A01 T03440087  RH  021%=      5-min Rain = 0
KDVS 150110Z 21004KT 34/09 A2998 RMK A01 T03390089  RH  022%=      5-min Rain = 0
KDVS 150115Z 21005KT 34/09 A2998 RMK A01 T03360090  RH  023%=      5-min Rain = 0
KDVS 150120Z 21006KT 33/09 A2999 RMK A01 T03330091  RH  023%=      5-min Rain = 0
KDVS 150125Z 20006KT 33/09 A2999 RMK A01 T03300092  RH  024%=      5-min Rain = 0
KDVS 150130Z 20005KT 33/09 A2999 RMK A01 T03290090  RH  024%=      5-min Rain = 0
KDVS 150135Z 21005KT 32/10 A2999 RMK A01 T03240098  RH  026%=      5-min Rain = 0
KDVS 150140Z 20005KT 32/10 A2999 RMK A01 T03200097  RH  026%=      5-min Rain = 0
KDVS 150145Z 19004KT 32/09 A2999 RMK A01 T03190094  RH  026%=      5-min Rain = 0
KDVS 150150Z 19004KT 32/09 A2999 RMK A01 T03190094  RH  026%=      5-min Rain = 0
KDVS 150155Z 19004KT 32/09 A2999 RMK A01 T03190093  RH  026%=      5-min Rain = 0
KDVS 150200Z 19005KT 32/09 A30 RMK A01 T03210088  RH  024%=      5-min Rain = 0
KDVS 150205Z 19005KT 32/09 A30 RMK A01 T03200092  RH  025%=      5-min Rain = 0
KDVS 150210Z 34005G22KT 32/09 A3001 RMK A01 T03170092  RH  026%=      5-min Rain = 0
KDVS 150215Z 01020G28KT 30/11 A3004 RMK A01 T02970106  RH  032%=      5-min Rain = 0
KDVS 150220Z 36021G40KT 29/11 A3003 RMK A01 T02920105  RH  032%=      5-min Rain = 0
KDVS 150225Z 02033G46KT 29/10 A3003 RMK A01 T02930101  RH  031%=      5-min Rain = 0
KDVS 150230Z 02031G41KT 29/10 A3004 RMK A01 T02900103  RH  032%=      5-min Rain = 0
KDVS 150235Z 02028G36KT 29/11 A3004 RMK A01 T02880105  RH  033%=      5-min Rain = 0
KDVS 150240Z 02029G37KT 29/11 A3005 RMK A01 T02870106  RH  034%=      5-min Rain = 0
KDVS 150245Z 03027G35KT 29/11 A3005 RMK A01 T02860106  RH  034%=      5-min Rain = 0
KDVS 150250Z 03026G40KT 29/11 A3005 RMK A01 T02850106  RH  034%=      5-min Rain = 0
KDVS 150255Z 03025G35KT 29/11 A3005 RMK A01 T02860105  RH  034%=      5-min Rain = 0
KDVS 150300Z 03030G38KT 29/10 A3005 RMK A01 T02870104  RH  033%=      5-min Rain = 0
KDVS 150305Z 04025G35KT 29/10 A3005 RMK A01 T02880102  RH  033%=      5-min Rain = 0
KDVS 150310Z 04025G35KT 29/10 A3006 RMK A01 T02880102  RH  033%=      5-min Rain = 0
KDVS 150315Z 04023G31KT 29/10 A3006 RMK A01 T02870102  RH  033%=      5-min Rain = 0
KDVS 150320Z 04025G31KT 29/10 A3006 RMK A01 T02870102  RH  033%=      5-min Rain = 0
KDVS 150325Z 04022G27KT 29/10 A3006 RMK A01 T02850103  RH  033%=      5-min Rain = 0
KDVS 150330Z 04021G30KT 28/10 A3006 RMK A01 T02840104  RH  034%=      5-min Rain = 0
KDVS 150335Z 04020G28KT 28/10 A3006 RMK A01 T02820104  RH  034%=      5-min Rain = 0
KDVS 150340Z 04020G27KT 28/11 A3006 RMK A01 T02810106  RH  035%=      5-min Rain = 0
KDVS 150345Z 05022G27KT 28/11 A3006 RMK A01 T02800106  RH  035%=      5-min Rain = 0
KDVS 150350Z 05023G30KT 28/11 A3006 RMK A01 T02800107  RH  035%=      5-min Rain = 0
KDVS 150355Z 04020G28KT 28/11 A3006 RMK A01 T02790107  RH  035%=      5-min Rain = 0
KDVS 150400Z 05019G29KT 28/11 A3007 RMK A01 T02780107  RH  035%=      5-min Rain = 0
KDVS 150405Z 05020G28KT 28/11 A3007 RMK A01 T02780108  RH  036%=      5-min Rain = 0
KDVS 150410Z 05020G26KT 28/11 A3007 RMK A01 T02770108  RH  036%=      5-min Rain = 0
KDVS 150415Z 06020G27KT 28/11 A3006 RMK A01 T02760109  RH  036%=      5-min Rain = 0
KDVS 150420Z 06020G25KT 28/11 A3006 RMK A01 T02750110  RH  037%=      5-min Rain = 0
KDVS 150425Z 06018G24KT 27/11 A3007 RMK A01 T02740111  RH  037%=      5-min Rain = 0
KDVS 150430Z 06018KT 27/11 A3006 RMK A01 T02730111  RH  038%=      5-min Rain = 0
KDVS 150435Z 06017G24KT 27/11 A3006 RMK A01 T02730110  RH  038%=      5-min Rain = 0
KDVS 150440Z 06015G21KT 27/11 A3006 RMK A01 T02730111  RH  038%=      5-min Rain = 0
KDVS 150445Z 07016KT 27/11 A3006 RMK A01 T02730110  RH  037%=      5-min Rain = 0
KDVS 150450Z 07014G19KT 27/11 A3006 RMK A01 T02730110  RH  037%=      5-min Rain = 0
KDVS 150455Z 07015KT 27/11 A3006 RMK A01 T02740109  RH  037%=      5-min Rain = 0

Page generated in 0.0094 seconds.